createdAt,value
2019-05-09T00:00:39.682Z,4.33
2019-05-09T00:03:07.519Z,4.40
2019-05-09T00:05:35.273Z,4.13
2019-05-09T00:08:03.599Z,4.20
2019-05-09T00:10:39.539Z,4.20
2019-05-09T00:13:03.275Z,4.83
2019-05-09T00:15:33.090Z,4.30
2019-05-09T00:18:00.844Z,5.00
2019-05-09T00:20:38.480Z,4.77
2019-05-09T00:23:06.309Z,4.87
2019-05-09T00:25:34.251Z,5.07
2019-05-09T00:28:04.161Z,4.80
2019-05-09T00:30:50.030Z,4.67
2019-05-09T00:33:23.446Z,4.87
2019-05-09T00:35:53.319Z,5.00
2019-05-09T00:38:23.959Z,4.97
2019-05-09T00:40:58.401Z,5.43
2019-05-09T00:43:23.664Z,4.83
2019-05-09T00:46:10.712Z,5.00
2019-05-09T00:48:53.332Z,4.63
2019-05-09T00:51:23.299Z,5.00
2019-05-09T00:53:51.018Z,5.53
2019-05-09T00:56:19.516Z,5.37
2019-05-09T00:58:47.348Z,5.20
2019-05-09T01:01:15.232Z,5.07
2019-05-09T01:03:43.272Z,5.23
2019-05-09T01:06:13.203Z,4.30
2019-05-09T01:08:41.061Z,5.00
2019-05-09T01:11:12.384Z,4.90
2019-05-09T01:13:38.702Z,4.70
2019-05-09T01:16:06.681Z,4.27
2019-05-09T01:18:34.983Z,4.67
2019-05-09T01:21:03.990Z,4.30
2019-05-09T01:23:34.254Z,4.10
2019-05-09T01:26:03.871Z,4.03
2019-05-09T01:28:33.931Z,4.30
2019-05-09T01:31:03.951Z,3.80
2019-05-09T01:33:43.804Z,4.00
2019-05-09T01:36:11.595Z,3.93
2019-05-09T01:38:39.365Z,4.00
2019-05-09T01:41:07.327Z,3.63
2019-05-09T01:43:35.087Z,3.60
2019-05-09T01:46:04.015Z,3.00
2019-05-09T01:48:33.904Z,3.47
2019-05-09T01:51:03.207Z,3.57
2019-05-09T01:53:34.528Z,3.33
2019-05-09T01:56:03.762Z,2.87
2019-05-09T01:58:34.250Z,3.00
2019-05-09T02:01:04.219Z,3.03
2019-05-09T02:03:33.644Z,3.20
2019-05-09T02:06:03.458Z,3.17
2019-05-09T02:08:34.182Z,3.10
2019-05-09T02:11:03.675Z,2.70
2019-05-09T02:13:33.646Z,2.90
2019-05-09T02:16:23.556Z,2.90
2019-05-09T02:18:57.032Z,2.70
2019-05-09T02:21:25.029Z,2.63
2019-05-09T02:23:53.711Z,2.67
2019-05-09T02:26:23.871Z,2.83
2019-05-09T02:28:53.639Z,2.57
2019-05-09T02:31:24.166Z,2.80
2019-05-09T02:33:53.856Z,2.70
2019-05-09T02:36:20.781Z,3.20
2019-05-09T02:38:48.985Z,2.90
2019-05-09T02:41:19.784Z,2.93
2019-05-09T02:43:49.656Z,3.07
2019-05-09T02:46:31.525Z,3.00
2019-05-09T02:48:59.657Z,2.60
2019-05-09T02:51:29.200Z,3.00
2019-05-09T02:53:58.599Z,3.10
2019-05-09T02:56:29.445Z,2.80
2019-05-09T02:59:03.429Z,3.00
2019-05-09T03:01:41.252Z,2.70
2019-05-09T03:04:09.032Z,2.57
2019-05-09T03:06:38.856Z,2.50
2019-05-09T03:09:08.964Z,2.47
2019-05-09T03:11:38.793Z,2.60
2019-05-09T03:14:09.155Z,2.50
2019-05-09T03:16:39.453Z,2.80
2019-05-09T03:19:08.739Z,2.03
2019-05-09T03:21:41.132Z,2.20
2019-05-09T03:24:10.058Z,2.27
2019-05-09T03:26:40.442Z,2.10
2019-05-09T03:29:43.016Z,2.00
2019-05-09T03:32:10.803Z,1.80
2019-05-09T03:34:38.611Z,1.70
2019-05-09T03:37:08.448Z,1.70
2019-05-09T03:39:37.743Z,1.80
2019-05-09T03:42:07.848Z,1.60
2019-05-09T03:44:35.676Z,1.80
2019-05-09T03:47:13.615Z,1.70
2019-05-09T03:49:41.472Z,1.60
2019-05-09T03:52:09.251Z,1.70
2019-05-09T03:54:39.946Z,1.50
2019-05-09T03:57:28.326Z,1.63
2019-05-09T03:59:57.300Z,1.80
2019-05-09T04:02:25.362Z,1.60
2019-05-09T04:04:53.136Z,1.60
2019-05-09T04:07:21.092Z,1.67
2019-05-09T04:09:49.134Z,1.60
2019-05-09T04:12:18.089Z,1.73
2019-05-09T04:14:47.940Z,2.20
2019-05-09T04:17:18.151Z,1.80
2019-05-09T04:19:47.875Z,1.60
2019-05-09T04:22:18.006Z,1.90
2019-05-09T04:24:47.413Z,1.60
2019-05-09T04:27:22.753Z,1.70
2019-05-09T04:29:50.708Z,1.50
2019-05-09T04:32:18.494Z,1.50
2019-05-09T04:34:47.288Z,1.50
2019-05-09T04:37:15.318Z,1.50
2019-05-09T04:39:43.128Z,1.53
2019-05-09T04:42:10.919Z,1.60
2019-05-09T04:44:57.556Z,1.80
2019-05-09T04:47:23.999Z,1.60
2019-05-09T04:49:52.850Z,1.50
2019-05-09T04:52:20.650Z,1.40
2019-05-09T04:54:48.683Z,1.60
2019-05-09T04:57:17.864Z,1.60
2019-05-09T04:59:47.522Z,1.40
2019-05-09T05:02:27.584Z,1.27
2019-05-09T05:04:55.373Z,1.50
2019-05-09T05:07:23.189Z,1.67
2019-05-09T05:09:51.127Z,1.40
2019-05-09T05:12:18.955Z,1.60
2019-05-09T05:14:47.619Z,1.30
2019-05-09T05:17:17.775Z,1.60
2019-05-09T05:19:47.444Z,1.50
2019-05-09T05:22:29.283Z,1.40
2019-05-09T05:25:00.025Z,1.40
2019-05-09T05:27:27.992Z,1.40
2019-05-09T05:29:58.093Z,1.50
2019-05-09T05:32:34.422Z,1.60
2019-05-09T05:35:07.745Z,1.60
2019-05-09T05:37:35.537Z,1.40
2019-05-09T05:40:04.234Z,1.40
2019-05-09T05:42:32.053Z,1.43
2019-05-09T05:44:59.846Z,1.40
2019-05-09T05:47:39.788Z,2.00
2019-05-09T05:50:08.426Z,1.53
2019-05-09T05:52:37.525Z,1.50
2019-05-09T05:55:07.546Z,1.90
2019-05-09T05:57:35.256Z,1.50
2019-05-09T06:00:03.305Z,1.40
2019-05-09T06:02:31.094Z,1.37
2019-05-09T06:04:58.914Z,1.30
2019-05-09T06:07:28.486Z,1.50
2019-05-09T06:09:57.565Z,1.60
2019-05-09T06:12:27.654Z,1.50
2019-05-09T06:14:55.308Z,1.20
2019-05-09T06:17:23.130Z,1.40
2019-05-09T06:19:50.925Z,1.50
2019-05-09T06:22:18.735Z,1.60
2019-05-09T06:24:47.888Z,1.50
2019-05-09T06:27:18.101Z,1.40
2019-05-09T06:29:47.719Z,1.67
2019-05-09T06:32:15.582Z,1.30
2019-05-09T06:34:43.393Z,1.50
2019-05-09T06:37:11.603Z,1.57
2019-05-09T06:39:39.413Z,1.60
2019-05-09T06:42:09.017Z,1.57
2019-05-09T06:45:07.594Z,1.50
2019-05-09T06:47:38.163Z,1.53
2019-05-09T06:50:08.266Z,1.50
2019-05-09T06:52:37.553Z,1.43
2019-05-09T06:55:08.459Z,1.50
2019-05-09T06:57:40.092Z,1.40
2019-05-09T07:00:10.686Z,1.43
2019-05-09T07:03:03.890Z,1.30
2019-05-09T07:05:49.695Z,1.53
2019-05-09T07:08:31.998Z,1.23
2019-05-09T07:10:59.908Z,1.30
2019-05-09T07:13:27.714Z,1.20
2019-05-09T07:15:55.786Z,1.33
2019-05-09T07:18:23.572Z,1.20
2019-05-09T07:20:51.437Z,1.20
2019-05-09T07:23:19.210Z,1.17
2019-05-09T07:26:17.486Z,0.90
2019-05-09T07:28:45.382Z,0.90
2019-05-09T07:31:38.546Z,1.00
2019-05-09T07:34:19.498Z,1.30
2019-05-09T07:36:47.735Z,1.10
2019-05-09T07:39:17.605Z,1.00
2019-05-09T07:41:47.715Z,1.23
2019-05-09T07:44:15.196Z,1.20
2019-05-09T07:46:50.175Z,0.90
2019-05-09T07:49:18.008Z,1.20
2019-05-09T07:51:47.755Z,1.20
2019-05-09T07:54:22.060Z,1.13
2019-05-09T07:56:45.505Z,1.12
2019-05-09T07:59:13.422Z,1.00
2019-05-09T08:01:41.183Z,0.90
2019-05-09T08:04:08.994Z,0.87
2019-05-09T08:06:37.989Z,1.10
2019-05-09T08:09:08.370Z,1.10
2019-05-09T08:11:37.684Z,0.70
2019-05-09T08:14:10.445Z,1.20
2019-05-09T08:16:37.780Z,1.15
2019-05-09T08:19:07.329Z,0.93
2019-05-09T08:21:34.839Z,0.90
2019-05-09T08:24:02.683Z,0.93
2019-05-09T08:26:30.505Z,1.00
2019-05-09T08:28:59.649Z,0.88
2019-05-09T08:31:28.188Z,0.80
2019-05-09T08:33:59.033Z,0.90
2019-05-09T08:36:28.003Z,0.90
2019-05-09T08:38:58.390Z,0.98
2019-05-09T08:41:25.479Z,0.90
2019-05-09T08:43:53.329Z,1.02
2019-05-09T08:46:21.121Z,1.17
2019-05-09T08:48:48.909Z,0.88
2019-05-09T08:52:05.979Z,1.00
2019-05-09T08:54:38.031Z,0.90
2019-05-09T08:57:07.666Z,0.80
2019-05-09T08:59:35.430Z,1.30
2019-05-09T09:02:15.294Z,0.82
2019-05-09T09:04:33.170Z,0.72
2019-05-09T09:07:01.029Z,0.70
2019-05-09T09:09:28.818Z,0.80
2019-05-09T09:11:58.311Z,1.10
2019-05-09T09:14:27.879Z,1.10
2019-05-09T09:16:57.568Z,2.17
2019-05-09T09:19:27.874Z,1.00
2019-05-09T09:21:59.622Z,0.93
2019-05-09T09:24:24.988Z,1.10
2019-05-09T09:26:52.802Z,1.10
2019-05-09T09:29:21.812Z,1.27
2019-05-09T09:31:49.596Z,0.90
2019-05-09T09:34:18.185Z,1.00
2019-05-09T09:36:48.070Z,1.17
2019-05-09T09:39:18.352Z,0.90
2019-05-09T09:41:48.145Z,0.98
2019-05-09T09:44:17.797Z,1.15
2019-05-09T09:46:44.990Z,0.90
2019-05-09T09:49:12.808Z,0.95
2019-05-09T09:51:40.636Z,0.80
2019-05-09T09:54:09.060Z,1.00
2019-05-09T09:56:38.638Z,0.90
2019-05-09T09:59:18.888Z,1.00
2019-05-09T10:01:47.823Z,0.88
2019-05-09T10:04:23.870Z,1.00
2019-05-09T10:06:48.222Z,0.90
2019-05-09T10:09:17.500Z,0.90
2019-05-09T10:11:48.124Z,0.80
2019-05-09T10:14:20.161Z,0.90
2019-05-09T10:17:10.510Z,1.00
2019-05-09T10:20:13.106Z,1.00
2019-05-09T10:22:46.340Z,0.95
2019-05-09T10:25:10.668Z,0.80
2019-05-09T10:27:38.770Z,0.90
2019-05-09T10:30:09.098Z,0.85
2019-05-09T10:32:38.341Z,0.95
2019-05-09T10:35:08.605Z,0.90
2019-05-09T10:37:39.287Z,1.12
2019-05-09T10:40:06.091Z,1.10
2019-05-09T10:43:02.319Z,0.95
2019-05-09T10:45:49.714Z,0.90
2019-05-09T10:48:23.799Z,0.90
2019-05-09T10:50:53.818Z,0.68
2019-05-09T10:53:18.013Z,0.80
2019-05-09T10:55:48.058Z,0.90
2019-05-09T10:58:15.644Z,1.07
2019-05-09T11:00:43.460Z,1.00
2019-05-09T11:03:11.304Z,1.10
2019-05-09T11:05:39.315Z,0.82
2019-05-09T11:08:08.206Z,0.90
2019-05-09T11:10:38.839Z,1.02
2019-05-09T11:13:07.571Z,0.90
2019-05-09T11:15:37.487Z,0.80
2019-05-09T11:18:07.901Z,0.70
2019-05-09T11:20:35.164Z,0.93
2019-05-09T11:23:02.966Z,1.00
2019-05-09T11:25:30.756Z,0.90
2019-05-09T11:28:09.921Z,1.00
2019-05-09T11:30:28.325Z,0.80
2019-05-09T11:32:56.188Z,0.80
2019-05-09T11:35:23.999Z,1.00
2019-05-09T11:37:51.816Z,1.00
2019-05-09T11:40:19.637Z,0.98
2019-05-09T11:42:48.256Z,1.10
2019-05-09T11:45:18.089Z,1.17
2019-05-09T11:47:46.716Z,1.03
2019-05-09T11:50:15.011Z,1.10
2019-05-09T11:52:42.823Z,1.00
2019-05-09T11:55:28.659Z,1.00
2019-05-09T11:57:40.390Z,0.90
2019-05-09T12:00:09.114Z,0.88
2019-05-09T12:02:38.530Z,1.10
2019-05-09T12:05:08.723Z,1.00
2019-05-09T12:07:37.933Z,1.17
2019-05-09T12:10:07.828Z,1.07
2019-05-09T12:12:38.841Z,1.02
2019-05-09T12:15:08.576Z,1.00
2019-05-09T12:17:50.963Z,1.05
2019-05-09T12:20:12.305Z,1.02
2019-05-09T12:22:36.344Z,1.10
2019-05-09T12:25:04.481Z,1.10
2019-05-09T12:27:32.381Z,1.00
2019-05-09T12:30:00.212Z,1.00
2019-05-09T12:32:28.479Z,0.90
2019-05-09T12:34:57.739Z,0.70
2019-05-09T12:37:27.999Z,0.72
2019-05-09T12:39:55.615Z,0.80
2019-05-09T12:42:23.426Z,0.82
2019-05-09T12:44:51.132Z,0.75
2019-05-09T12:47:19.259Z,0.85
2019-05-09T12:49:48.781Z,1.07
2019-05-09T12:52:18.572Z,0.90
2019-05-09T12:54:48.355Z,0.90
2019-05-09T12:57:18.920Z,0.85
2019-05-09T12:59:49.821Z,0.90
2019-05-09T13:02:17.755Z,1.10
2019-05-09T13:04:47.505Z,0.75
2019-05-09T13:07:15.147Z,1.00
2019-05-09T13:09:43.001Z,1.00
2019-05-09T13:12:11.030Z,1.07
2019-05-09T13:14:39.095Z,0.62
2019-05-09T13:17:13.504Z,0.68
2019-05-09T13:19:44.151Z,0.80
2019-05-09T13:22:11.967Z,0.80
2019-05-09T13:24:39.888Z,0.80
2019-05-09T13:27:08.081Z,0.78
2019-05-09T13:29:38.120Z,0.90
2019-05-09T13:32:05.802Z,0.82
2019-05-09T13:34:33.655Z,0.70
2019-05-09T13:37:01.445Z,0.70
2019-05-09T13:39:29.344Z,0.70
2019-05-09T13:41:58.307Z,0.85
2019-05-09T13:44:27.713Z,0.70
2019-05-09T13:46:58.225Z,0.90
2019-05-09T13:49:25.487Z,0.70
2019-05-09T13:52:00.377Z,0.82
2019-05-09T13:54:23.165Z,0.65
2019-05-09T13:56:57.583Z,0.80
2019-05-09T13:59:20.883Z,0.88
2019-05-09T14:01:48.842Z,0.80
2019-05-09T14:04:16.665Z,0.87
2019-05-09T14:06:44.521Z,0.60
2019-05-09T14:09:12.337Z,0.80
2019-05-09T14:11:40.270Z,0.90
2019-05-09T14:14:08.045Z,0.83
2019-05-09T14:16:38.782Z,0.67
2019-05-09T14:19:28.700Z,0.80
2019-05-09T14:21:35.316Z,0.60
2019-05-09T14:24:14.147Z,0.47
2019-05-09T14:26:32.896Z,0.57
2019-05-09T14:29:00.684Z,0.60
2019-05-09T14:31:32.257Z,0.60
2019-05-09T14:33:58.197Z,0.90
2019-05-09T14:36:27.729Z,0.60
2019-05-09T14:38:58.038Z,0.60
2019-05-09T14:41:27.624Z,0.60
2019-05-09T14:43:55.321Z,0.60
2019-05-09T14:46:23.585Z,0.53
2019-05-09T14:48:51.888Z,0.83
2019-05-09T14:51:19.886Z,0.70
2019-05-09T14:53:48.553Z,0.70
2019-05-09T14:56:16.575Z,0.80
2019-05-09T14:58:44.373Z,0.80
2019-05-09T15:01:12.331Z,1.00
2019-05-09T15:03:40.128Z,0.60
2019-05-09T15:06:07.943Z,0.70
2019-05-09T15:08:38.027Z,0.70
2019-05-09T15:11:08.656Z,0.67
2019-05-09T15:13:35.612Z,0.57
2019-05-09T15:16:08.727Z,0.70
2019-05-09T15:18:35.823Z,0.60
2019-05-09T15:21:04.058Z,0.70
2019-05-09T15:23:31.865Z,0.67
2019-05-09T15:25:59.660Z,0.70
2019-05-09T15:28:29.118Z,0.80
2019-05-09T15:30:59.370Z,0.60
2019-05-09T15:33:27.609Z,0.90
2019-05-09T15:35:55.540Z,0.60
2019-05-09T15:38:23.367Z,0.90
2019-05-09T15:40:51.159Z,0.70
2019-05-09T15:43:18.998Z,0.70
2019-05-09T15:45:53.366Z,0.53
2019-05-09T15:48:21.764Z,0.80
2019-05-09T15:50:49.612Z,0.67
2019-05-09T15:53:18.447Z,0.60
2019-05-09T15:55:48.069Z,0.70
2019-05-09T15:58:18.805Z,0.80
2019-05-09T16:00:47.807Z,0.80
2019-05-09T16:03:15.423Z,0.80
2019-05-09T16:05:43.240Z,0.97
2019-05-09T16:08:11.658Z,0.70
2019-05-09T16:10:39.625Z,0.60
2019-05-09T16:13:08.197Z,1.03
2019-05-09T16:15:38.189Z,0.70
2019-05-09T16:18:08.428Z,0.73
2019-05-09T16:20:38.465Z,0.70
2019-05-09T16:23:08.188Z,0.90
2019-05-09T16:25:35.032Z,0.70
2019-05-09T16:28:02.942Z,0.70
2019-05-09T16:30:30.721Z,0.60
2019-05-09T16:32:58.706Z,0.87
2019-05-09T16:35:28.630Z,0.60
2019-05-09T16:38:05.283Z,0.70
2019-05-09T16:40:27.971Z,0.73
2019-05-09T16:42:58.091Z,0.73
2019-05-09T16:45:25.875Z,0.83
2019-05-09T16:47:53.658Z,0.70
2019-05-09T16:50:21.789Z,0.60
2019-05-09T16:52:49.625Z,0.70
2019-05-09T16:55:22.611Z,0.60
2019-05-09T16:57:50.442Z,0.70
2019-05-09T17:00:38.259Z,0.60
2019-05-09T17:03:08.007Z,0.60
2019-05-09T17:05:37.419Z,0.60
2019-05-09T17:08:05.375Z,0.63
2019-05-09T17:10:33.202Z,0.70
2019-05-09T17:13:00.999Z,0.80
2019-05-09T17:15:29.339Z,0.80
2019-05-09T17:17:57.266Z,0.73
2019-05-09T17:20:30.965Z,0.90
2019-05-09T17:23:15.219Z,0.80
2019-05-09T17:25:43.274Z,0.70
2019-05-09T17:28:11.176Z,0.70
2019-05-09T17:30:39.141Z,1.20
2019-05-09T17:33:07.881Z,0.80
2019-05-09T17:35:35.837Z,0.97
2019-05-09T17:38:03.642Z,0.70
2019-05-09T17:40:31.436Z,0.80
2019-05-09T17:42:59.502Z,0.93
2019-05-09T17:45:27.347Z,1.00
2019-05-09T17:47:55.127Z,1.30
2019-05-09T17:50:22.922Z,0.80
2019-05-09T17:52:50.768Z,0.80
2019-05-09T17:55:18.560Z,0.90
2019-05-09T17:57:47.950Z,0.90
2019-05-09T18:00:21.676Z,0.73
2019-05-09T18:02:48.616Z,0.63
2019-05-09T18:05:16.678Z,0.80
2019-05-09T18:07:44.463Z,0.63
2019-05-09T18:10:13.917Z,0.80
2019-05-09T18:12:41.722Z,0.77
2019-05-09T18:15:10.069Z,0.87
2019-05-09T18:17:38.368Z,1.10
2019-05-09T18:20:08.060Z,1.10
2019-05-09T18:22:35.992Z,0.90
2019-05-09T18:25:04.787Z,1.10
2019-05-09T18:27:32.595Z,1.00
2019-05-09T18:30:00.457Z,1.07
2019-05-09T18:32:40.325Z,0.90
2019-05-09T18:35:16.513Z,0.80
2019-05-09T18:37:44.344Z,0.90
2019-05-09T18:40:12.139Z,0.90
2019-05-09T18:42:39.968Z,1.00
2019-05-09T18:45:08.824Z,1.00
2019-05-09T18:47:36.658Z,1.00
2019-05-09T18:50:05.558Z,1.30
2019-05-09T18:52:33.371Z,1.30
2019-05-09T18:55:01.182Z,1.20
2019-05-09T18:57:29.053Z,1.40
2019-05-09T18:59:56.861Z,1.30
2019-05-09T19:02:24.743Z,1.30
2019-05-09T19:04:52.546Z,1.20
2019-05-09T19:07:22.778Z,1.13
2019-05-09T19:09:50.058Z,1.30
2019-05-09T19:12:18.033Z,1.30
2019-05-09T19:14:47.190Z,1.20
2019-05-09T19:17:40.650Z,1.27
2019-05-09T19:20:34.408Z,1.37
2019-05-09T19:23:02.329Z,2.23
2019-05-09T19:25:30.653Z,1.30
2019-05-09T19:27:58.449Z,1.60
2019-05-09T19:30:26.352Z,1.20
2019-05-09T19:32:54.176Z,1.50
2019-05-09T19:35:22.054Z,1.40
2019-05-09T19:37:49.929Z,1.33
2019-05-09T19:40:20.141Z,1.80
2019-05-09T19:42:47.496Z,1.10
2019-05-09T19:45:15.625Z,1.20
2019-05-09T19:47:43.464Z,1.10
2019-05-09T19:50:11.710Z,1.10
2019-05-09T19:52:39.599Z,1.10
2019-05-09T19:55:07.533Z,1.00
2019-05-09T19:57:35.387Z,1.00
2019-05-09T20:00:03.684Z,0.90
2019-05-09T20:02:32.339Z,1.10
2019-05-09T20:05:00.171Z,1.00
2019-05-09T20:07:28.014Z,1.10
2019-05-09T20:10:02.601Z,1.00
2019-05-09T20:12:40.342Z,1.20
2019-05-09T20:15:10.067Z,0.90
2019-05-09T20:17:37.862Z,1.00
2019-05-09T20:20:06.348Z,0.87
2019-05-09T20:22:34.191Z,0.90
2019-05-09T20:25:02.016Z,1.07
2019-05-09T20:27:29.830Z,1.10
2019-05-09T20:29:57.657Z,1.10
2019-05-09T20:32:25.514Z,0.83
2019-05-09T20:34:53.334Z,0.87
2019-05-09T20:37:21.120Z,0.80
2019-05-09T20:39:49.073Z,0.80
2019-05-09T20:42:16.926Z,0.70
2019-05-09T20:44:44.797Z,0.80
2019-05-09T20:47:12.616Z,0.70
2019-05-09T20:49:41.214Z,0.60
2019-05-09T20:52:09.101Z,0.50
2019-05-09T20:54:37.007Z,0.63
2019-05-09T20:57:04.767Z,0.60
2019-05-09T20:59:32.572Z,0.60
2019-05-09T21:02:00.431Z,0.77
2019-05-09T21:04:28.319Z,0.60
2019-05-09T21:06:56.277Z,1.00
2019-05-09T21:09:24.342Z,0.70
2019-05-09T21:11:52.161Z,0.60
2019-05-09T21:14:19.974Z,0.50
2019-05-09T21:16:47.809Z,0.67
2019-05-09T21:19:15.663Z,0.77
2019-05-09T21:21:43.535Z,0.60
2019-05-09T21:24:11.447Z,0.40
2019-05-09T21:26:39.238Z,0.70
2019-05-09T21:29:07.052Z,0.50
2019-05-09T21:31:34.851Z,0.50
2019-05-09T21:34:02.821Z,0.70
2019-05-09T21:36:30.629Z,0.60
2019-05-09T21:38:58.392Z,0.70
2019-05-09T21:41:26.216Z,0.60
2019-05-09T21:43:54.210Z,19.30
2019-05-09T21:46:22.098Z,0.53
2019-05-09T21:48:49.884Z,0.67
2019-05-09T21:51:17.715Z,0.60
2019-05-09T21:53:45.594Z,0.60
2019-05-09T21:56:13.443Z,0.60
2019-05-09T21:58:41.237Z,0.70
2019-05-09T22:01:15.646Z,0.60
2019-05-09T22:03:43.541Z,0.50
2019-05-09T22:06:11.475Z,0.70
2019-05-09T22:08:39.425Z,0.60
2019-05-09T22:11:07.245Z,0.57
2019-05-09T22:13:35.035Z,0.50
2019-05-09T22:16:03.093Z,0.70
2019-05-09T22:18:30.886Z,0.50
2019-05-09T22:20:58.713Z,0.60
2019-05-09T22:23:26.807Z,0.50
2019-05-09T22:25:54.659Z,0.70
2019-05-09T22:28:22.424Z,0.70
2019-05-09T22:30:50.420Z,0.73
2019-05-09T22:33:18.198Z,0.60
2019-05-09T22:35:46.006Z,0.80
2019-05-09T22:38:13.853Z,0.70
2019-05-09T22:40:41.688Z,0.70
2019-05-09T22:43:09.531Z,3.43
2019-05-09T22:45:37.636Z,0.60
2019-05-09T22:48:05.438Z,0.67
2019-05-09T22:50:33.235Z,0.57
2019-05-09T22:53:01.039Z,0.70
2019-05-09T22:55:28.899Z,0.53
2019-05-09T22:57:56.719Z,0.50
2019-05-09T23:00:24.677Z,0.60
2019-05-09T23:02:52.594Z,0.70
2019-05-09T23:05:20.354Z,0.60
2019-05-09T23:07:48.167Z,0.53
2019-05-09T23:10:16.269Z,0.50
2019-05-09T23:12:44.090Z,0.60
2019-05-09T23:15:16.220Z,0.80
2019-05-09T23:17:44.194Z,0.70
2019-05-09T23:20:33.362Z,0.60
2019-05-09T23:23:22.376Z,0.70
2019-05-09T23:25:50.572Z,0.73
2019-05-09T23:28:21.475Z,0.87
2019-05-09T23:30:51.866Z,0.80
2019-05-09T23:33:20.857Z,0.80
2019-05-09T23:35:50.722Z,0.70
2019-05-09T23:38:18.758Z,0.77
2019-05-09T23:40:46.979Z,0.90
2019-05-09T23:43:14.766Z,0.80
2019-05-09T23:45:44.108Z,0.80
2019-05-09T23:48:13.573Z,0.70
2019-05-09T23:50:41.555Z,1.00
2019-05-09T23:53:09.653Z,0.80
2019-05-09T23:55:59.659Z,0.80
2019-05-09T23:58:45.707Z,0.67
